Time;durP1;ratioP1;P1;durP2;ratioP2;P2;SDS_P1;SDS_P2;PMS_P1;PMS_P2;Temp;Humidity;BMP_temperature;BMP_pressure;BME280_temperature;BME280_humidity;BME280_pressure;Samples;Min_cycle;Max_cycle;Signal;HPM_P1;HPM_P2
2023/03/10 00:00:48;;;;;;;31.05;20.70;;;;;;;;;;5093360;28;20460;-77
2023/03/10 00:03:13;;;;;;;48.35;32.22;;;;;;;;;;5092063;28;20048;-77
2023/03/10 00:05:38;;;;;;;48.75;33.38;;;;;;;;;;5086856;28;20040;-78
2023/03/10 00:08:04;;;;;;;49.33;34.85;;;;;;;;;;5079771;28;20076;-77
2023/03/10 00:10:29;;;;;;;69.55;45.88;;;;;;;;;;5076738;28;20031;-78
2023/03/10 00:12:54;;;;;;;57.35;40.10;;;;;;;;;;5079862;28;20028;-78
2023/03/10 00:15:20;;;;;;;35.20;24.88;;;;;;;;;;5080023;28;20035;-76
2023/03/10 00:17:48;;;;;;;60.38;36.83;;;;;;;;;;5088935;28;20028;-76
2023/03/10 00:20:14;;;;;;;105.40;58.42;;;;;;;;;;5092947;28;20094;-77
2023/03/10 00:22:42;;;;;;;93.55;53.42;;;;;;;;;;5093547;28;20505;-78
2023/03/10 00:25:08;;;;;;;54.92;34.83;;;;;;;;;;5084995;28;20111;-78
2023/03/10 00:27:34;;;;;;;42.35;28.23;;;;;;;;;;5090905;28;20430;-77
2023/03/10 00:29:59;;;;;;;45.47;26.90;;;;;;;;;;5092540;28;20031;-77
2023/03/10 00:32:25;;;;;;;23.65;15.55;;;;;;;;;;5085845;28;20038;-77
2023/03/10 00:34:50;;;;;;;25.42;17.50;;;;;;;;;;5093694;28;20029;-77
2023/03/10 00:37:15;;;;;;;29.83;20.02;;;;;;;;;;5081515;28;20514;-77
2023/03/10 00:39:41;;;;;;;31.08;19.00;;;;;;;;;;5094499;28;20111;-78
2023/03/10 00:42:06;;;;;;;24.33;16.85;;;;;;;;;;5089337;28;20384;-79
2023/03/10 00:44:32;;;;;;;23.60;15.48;;;;;;;;;;5090645;28;20055;-78
2023/03/10 00:46:57;;;;;;;50.67;37.92;;;;;;;;;;5079106;28;20106;-78
2023/03/10 00:49:22;;;;;;;43.80;35.30;;;;;;;;;;5093262;28;20019;-79
2023/03/10 00:51:47;;;;;;;48.20;38.97;;;;;;;;;;5069103;28;20051;-78
2023/03/10 00:54:13;;;;;;;52.38;40.38;;;;;;;;;;5089682;28;20084;-77
2023/03/10 00:56:38;;;;;;;44.40;33.30;;;;;;;;;;5092496;28;20449;-78
2023/03/10 00:59:05;;;;;;;26.65;22.15;;;;;;;;;;5089941;28;20020;-78
2023/03/10 01:01:35;;;;;;;20.17;15.60;;;;;;;;;;5080171;28;20042;-78
2023/03/10 01:04:05;;;;;;;23.33;16.90;;;;;;;;;;5084178;28;20534;-79
2023/03/10 01:06:31;;;;;;;23.20;16.65;;;;;;;;;;5081686;28;20023;-77
2023/03/10 01:08:57;;;;;;;25.15;19.13;;;;;;;;;;5091865;28;20315;-79
2023/03/10 01:11:26;;;;;;;26.27;19.13;;;;;;;;;;5088007;28;20022;-78
2023/03/10 01:13:52;;;;;;;108.63;72.25;;;;;;;;;;5087427;28;20039;-78
2023/03/10 01:16:18;;;;;;;139.10;92.22;;;;;;;;;;5079540;28;20043;-79
2023/03/10 01:18:43;;;;;;;139.07;91.65;;;;;;;;;;5089164;28;20027;-79
2023/03/10 01:21:14;;;;;;;91.38;60.17;;;;;;;;;;5084129;28;20118;-78
2023/03/10 01:23:39;;;;;;;76.72;51.20;;;;;;;;;;5090982;28;20039;-79
2023/03/10 01:26:05;;;;;;;65.30;43.83;;;;;;;;;;5078386;28;20020;-79
2023/03/10 01:28:30;;;;;;;66.75;44.35;;;;;;;;;;5088425;28;20019;-77
2023/03/10 01:30:55;;;;;;;75.05;52.08;;;;;;;;;;5089673;28;20459;-77
2023/03/10 01:33:20;;;;;;;83.43;57.83;;;;;;;;;;5093230;28;20019;-77
2023/03/10 01:35:46;;;;;;;75.63;53.50;;;;;;;;;;5089845;28;20346;-77
2023/03/10 01:38:12;;;;;;;70.30;49.15;;;;;;;;;;5088754;28;20307;-79
2023/03/10 01:40:37;;;;;;;72.32;48.85;;;;;;;;;;5083686;28;20842;-77
2023/03/10 01:43:21;;;;;;;83.93;53.35;;;;;;;;;;5082467;28;20032;-77
2023/03/10 01:45:46;;;;;;;87.57;56.78;;;;;;;;;;5083669;28;20716;-77
2023/03/10 01:48:12;;;;;;;90.50;54.85;;;;;;;;;;5092896;28;20012;-79
2023/03/10 01:50:38;;;;;;;74.93;49.58;;;;;;;;;;5084184;28;20387;-77
2023/03/10 01:53:04;;;;;;;85.97;53.72;;;;;;;;;;5079058;28;20031;-79
2023/03/10 01:55:32;;;;;;;87.10;54.80;;;;;;;;;;5087323;28;20027;-79
2023/03/10 01:57:57;;;;;;;87.85;54.00;;;;;;;;;;5089048;28;20355;-78
2023/03/10 02:00:24;;;;;;;93.45;62.90;;;;;;;;;;5081228;28;20034;-78
2023/03/10 02:03:07;;;;;;;118.30;76.28;;;;;;;;;;5084418;28;20044;-79
2023/03/10 02:05:37;;;;;;;111.93;65.65;;;;;;;;;;5080719;28;20028;-79
2023/03/10 02:08:03;;;;;;;114.38;70.32;;;;;;;;;;5081511;28;20034;-79
2023/03/10 02:10:29;;;;;;;97.18;58.50;;;;;;;;;;5065515;28;20031;-78
2023/03/10 02:12:54;;;;;;;96.07;63.33;;;;;;;;;;5091169;28;20054;-78
2023/03/10 02:15:19;;;;;;;79.63;53.42;;;;;;;;;;5084226;28;20032;-78
2023/03/10 02:17:45;;;;;;;91.30;55.13;;;;;;;;;;5088326;28;20069;-78
2023/03/10 02:20:15;;;;;;;119.40;66.45;;;;;;;;;;5088471;28;20073;-78
2023/03/10 02:22:40;;;;;;;72.47;39.78;;;;;;;;;;5080399;28;21098;-78
2023/03/10 02:25:05;;;;;;;34.15;24.08;;;;;;;;;;5090818;28;20028;-78
2023/03/10 02:27:34;;;;;;;24.90;17.73;;;;;;;;;;5083920;28;20021;-78
2023/03/10 02:30:06;;;;;;;30.85;23.67;;;;;;;;;;5086205;28;20436;-78
2023/03/10 02:32:33;;;;;;;38.38;27.30;;;;;;;;;;5076087;28;20408;-77
2023/03/10 02:34:58;;;;;;;23.05;16.05;;;;;;;;;;5089774;28;20032;-78
2023/03/10 02:37:25;;;;;;;35.83;26.58;;;;;;;;;;5086861;28;20337;-79
2023/03/10 02:39:51;;;;;;;34.40;25.23;;;;;;;;;;5082295;28;20035;-79
2023/03/10 02:42:17;;;;;;;34.65;24.90;;;;;;;;;;5069993;28;20442;-79
2023/03/10 02:44:43;;;;;;;29.55;22.25;;;;;;;;;;5091013;28;20019;-80
2023/03/10 02:47:09;;;;;;;44.92;32.75;;;;;;;;;;5093127;28;20084;-80
2023/03/10 02:49:35;;;;;;;30.55;22.10;;;;;;;;;;5090052;28;20084;-79
2023/03/10 02:52:01;;;;;;;30.52;21.45;;;;;;;;;;5086104;28;20028;-79
2023/03/10 02:54:27;;;;;;;29.15;22.80;;;;;;;;;;5092335;28;20032;-80
2023/03/10 02:56:52;;;;;;;29.38;22.77;;;;;;;;;;5095408;28;20430;-80
2023/03/10 02:59:17;;;;;;;23.55;19.05;;;;;;;;;;5093673;28;20084;-80
2023/03/10 03:01:42;;;;;;;19.95;15.55;;;;;;;;;;5090214;28;20077;-81
2023/03/10 03:04:08;;;;;;;21.17;16.13;;;;;;;;;;5083211;28;20466;-81
2023/03/10 03:06:33;;;;;;;21.50;16.27;;;;;;;;;;5092112;28;20035;-79
2023/03/10 03:08:58;;;;;;;30.60;20.48;;;;;;;;;;5090502;28;20027;-81
2023/03/10 03:11:24;;;;;;;25.90;18.77;;;;;;;;;;5092782;28;20024;-79
2023/03/10 03:13:49;;;;;;;28.10;20.63;;;;;;;;;;5088084;28;20050;-78
2023/03/10 03:16:15;;;;;;;22.05;18.20;;;;;;;;;;5097257;28;20473;-79
2023/03/10 03:18:40;;;;;;;22.90;15.95;;;;;;;;;;5062894;28;20028;-79
2023/03/10 03:21:07;;;;;;;35.22;23.45;;;;;;;;;;5069845;28;20034;-79
2023/03/10 03:23:33;;;;;;;33.60;22.20;;;;;;;;;;5094999;28;20311;-80
2023/03/10 03:25:59;;;;;;;28.00;20.70;;;;;;;;;;5080348;28;20209;-81
2023/03/10 03:28:24;;;;;;;24.08;19.10;;;;;;;;;;5090083;28;20103;-80
2023/03/10 03:30:49;;;;;;;24.95;18.67;;;;;;;;;;5091668;28;20148;-79
2023/03/10 03:33:15;;;;;;;23.08;19.25;;;;;;;;;;5093700;28;20028;-80
2023/03/10 03:35:41;;;;;;;15.60;12.73;;;;;;;;;;5090614;28;20028;-82
2023/03/10 03:38:07;;;;;;;17.52;13.25;;;;;;;;;;5092061;28;20123;-78
2023/03/10 03:40:33;;;;;;;17.80;11.77;;;;;;;;;;5094895;28;20095;-79
2023/03/10 03:42:59;;;;;;;14.15;10.43;;;;;;;;;;5083254;28;20027;-79
2023/03/10 03:45:25;;;;;;;31.98;20.25;;;;;;;;;;5092730;28;20077;-79
2023/03/10 03:47:51;;;;;;;23.42;17.75;;;;;;;;;;5094302;28;20015;-81
2023/03/10 03:50:17;;;;;;;93.82;53.90;;;;;;;;;;5059234;28;20336;-77
2023/03/10 03:52:43;;;;;;;127.68;76.95;;;;;;;;;;5057812;28;20365;-80
2023/03/10 03:55:09;;;;;;;50.70;32.42;;;;;;;;;;5090135;28;20054;-81
2023/03/10 03:57:34;;;;;;;38.70;28.67;;;;;;;;;;5090194;28;20082;-81
2023/03/10 04:00:00;;;;;;;37.40;26.85;;;;;;;;;;5093240;28;20527;-78
2023/03/10 04:02:25;;;;;;;32.63;22.38;;;;;;;;;;5096001;28;20373;-80
2023/03/10 04:04:52;;;;;;;45.15;28.55;;;;;;;;;;5084947;28;20034;-80
2023/03/10 04:07:17;;;;;;;99.40;53.85;;;;;;;;;;5090537;28;20023;-81
2023/03/10 04:09:42;;;;;;;65.15;41.15;;;;;;;;;;5095178;28;20047;-81
2023/03/10 04:12:09;;;;;;;53.25;36.53;;;;;;;;;;5092915;28;20032;-80
2023/03/10 04:14:34;;;;;;;48.83;36.60;;;;;;;;;;5091049;28;20036;-81
2023/03/10 04:17:00;;;;;;;53.35;35.00;;;;;;;;;;5088686;28;20026;-80
2023/03/10 04:19:25;;;;;;;49.70;34.22;;;;;;;;;;5094545;28;20354;-79
2023/03/10 04:21:50;;;;;;;44.15;33.38;;;;;;;;;;5087281;28;20342;-78
2023/03/10 04:24:16;;;;;;;36.35;26.55;;;;;;;;;;5087842;28;20027;-79
2023/03/10 04:26:41;;;;;;;24.73;18.20;;;;;;;;;;5077697;28;20118;-79
2023/03/10 04:29:06;;;;;;;26.38;18.05;;;;;;;;;;5085252;28;22410;-80
2023/03/10 04:31:31;;;;;;;30.10;22.25;;;;;;;;;;5096481;28;20070;-78
2023/03/10 04:33:57;;;;;;;30.08;23.95;;;;;;;;;;5092494;28;20027;-79
2023/03/10 04:36:22;;;;;;;53.67;42.45;;;;;;;;;;5091984;28;20437;-78
2023/03/10 04:38:47;;;;;;;44.25;34.65;;;;;;;;;;5092290;28;20350;-79
2023/03/10 04:41:13;;;;;;;37.03;31.33;;;;;;;;;;5087485;28;20078;-78
2023/03/10 04:43:38;;;;;;;39.70;32.42;;;;;;;;;;5079238;28;20039;-78
2023/03/10 04:46:04;;;;;;;31.80;27.58;;;;;;;;;;5083192;28;20031;-78
2023/03/10 04:48:29;;;;;;;47.45;41.00;;;;;;;;;;5069168;28;20048;-79
2023/03/10 04:51:18;;;;;;;95.65;75.88;;;;;;;;;;5066550;28;20035;-79
2023/03/10 04:53:43;;;;;;;95.28;82.78;;;;;;;;;;5067569;28;20110;-79
2023/03/10 04:56:10;;;;;;;39.75;33.47;;;;;;;;;;5067538;28;20176;-79
2023/03/10 04:58:35;;;;;;;18.88;16.88;;;;;;;;;;5066886;28;20465;-78
2023/03/10 05:01:00;;;;;;;16.17;14.45;;;;;;;;;;5070721;28;20029;-78
2023/03/10 05:03:26;;;;;;;14.40;12.45;;;;;;;;;;5077721;28;20075;-77
2023/03/10 05:05:51;;;;;;;12.65;10.88;;;;;;;;;;5091999;28;20047;-78
2023/03/10 05:08:16;;;;;;;24.70;21.25;;;;;;;;;;5092424;28;20639;-78
2023/03/10 05:10:42;;;;;;;19.25;17.25;;;;;;;;;;5092206;28;20101;-78
2023/03/10 05:13:11;;;;;;;21.00;17.92;;;;;;;;;;5088792;28;20120;-79
2023/03/10 05:15:40;;;;;;;23.83;21.17;;;;;;;;;;5096042;28;20035;-78
2023/03/10 05:18:06;;;;;;;15.33;12.83;;;;;;;;;;5081856;28;20483;-80
2023/03/10 05:20:31;;;;;;;14.32;11.40;;;;;;;;;;5078763;28;20280;-82
2023/03/10 05:22:56;;;;;;;24.15;20.08;;;;;;;;;;5093993;28;20031;-80
2023/03/10 05:25:22;;;;;;;29.13;24.88;;;;;;;;;;5089770;28;20104;-80
2023/03/10 05:27:47;;;;;;;29.40;24.25;;;;;;;;;;5093339;28;20052;-80
2023/03/10 05:30:14;;;;;;;32.25;26.63;;;;;;;;;;5086515;28;20023;-81
2023/03/10 05:32:40;;;;;;;16.73;14.30;;;;;;;;;;5077390;28;20030;-80
2023/03/10 05:35:05;;;;;;;11.05;8.50;;;;;;;;;;5083481;28;20019;-80
2023/03/10 05:37:32;;;;;;;8.60;7.30;;;;;;;;;;5092216;28;20116;-81
2023/03/10 05:39:58;;;;;;;11.02;9.93;;;;;;;;;;5078965;28;20024;-80
2023/03/10 05:42:23;;;;;;;23.63;19.88;;;;;;;;;;5083176;28;20079;-80
2023/03/10 05:44:48;;;;;;;90.13;70.60;;;;;;;;;;5090463;28;20024;-80
2023/03/10 05:47:17;;;;;;;116.90;100.95;;;;;;;;;;5092240;28;20032;-78
2023/03/10 05:49:43;;;;;;;98.07;83.65;;;;;;;;;;5091849;28;20456;-81
2023/03/10 05:52:08;;;;;;;57.67;48.75;;;;;;;;;;5091541;28;20025;-78
2023/03/10 05:54:33;;;;;;;56.33;46.17;;;;;;;;;;5079509;28;20039;-80
2023/03/10 05:56:59;;;;;;;196.18;145.40;;;;;;;;;;5076669;28;20032;-81
2023/03/10 05:59:25;;;;;;;199.70;142.10;;;;;;;;;;5076180;28;20038;-80
2023/03/10 06:01:50;;;;;;;26.65;22.77;;;;;;;;;;5078743;28;20030;-79
2023/03/10 06:04:15;;;;;;;38.42;29.85;;;;;;;;;;5076857;28;20150;-79
2023/03/10 06:06:41;;;;;;;51.95;45.10;;;;;;;;;;5090496;28;20114;-80
2023/03/10 06:09:06;;;;;;;34.70;30.92;;;;;;;;;;5084823;28;20043;-80
2023/03/10 06:11:32;;;;;;;33.28;27.70;;;;;;;;;;5093123;28;20405;-78
2023/03/10 06:13:57;;;;;;;65.22;46.53;;;;;;;;;;5094315;28;20439;-82
2023/03/10 06:16:23;;;;;;;103.00;74.72;;;;;;;;;;5095900;28;20035;-77
2023/03/10 06:18:51;;;;;;;133.25;91.25;;;;;;;;;;5094436;28;20019;-78
2023/03/10 06:21:16;;;;;;;128.48;87.35;;;;;;;;;;5068789;28;20032;-73
2023/03/10 06:23:42;;;;;;;109.78;70.15;;;;;;;;;;5095036;28;20047;-78
2023/03/10 06:26:12;;;;;;;112.20;80.75;;;;;;;;;;5096049;28;20109;-79
2023/03/10 06:28:38;;;;;;;90.07;61.33;;;;;;;;;;5092571;28;20162;-80
2023/03/10 06:31:05;;;;;;;91.32;66.28;;;;;;;;;;5083769;28;20036;-79
2023/03/10 06:33:30;;;;;;;101.65;75.05;;;;;;;;;;5089222;28;20031;-80
2023/03/10 06:35:56;;;;;;;104.28;76.75;;;;;;;;;;5083305;28;20036;-78
2023/03/10 06:38:21;;;;;;;99.40;73.97;;;;;;;;;;5083052;28;20057;-79
2023/03/10 06:40:47;;;;;;;58.55;44.83;;;;;;;;;;5081286;28;20515;-79
2023/03/10 06:43:12;;;;;;;51.42;40.65;;;;;;;;;;5090530;28;20093;-79
2023/03/10 06:45:40;;;;;;;94.28;69.22;;;;;;;;;;5096610;28;20028;-79
2023/03/10 06:48:05;;;;;;;128.02;89.95;;;;;;;;;;5095024;28;20028;-80
2023/03/10 06:50:30;;;;;;;75.13;60.85;;;;;;;;;;5094328;28;20026;-80
2023/03/10 06:52:56;;;;;;;88.85;70.57;;;;;;;;;;5095759;28;20043;-80
2023/03/10 06:55:21;;;;;;;78.50;60.65;;;;;;;;;;5092962;28;20034;-80
2023/03/10 06:57:46;;;;;;;54.78;44.10;;;;;;;;;;5095021;28;20043;-80
2023/03/10 07:00:14;;;;;;;54.85;43.22;;;;;;;;;;5095893;28;20069;-80
2023/03/10 07:02:40;;;;;;;53.90;40.15;;;;;;;;;;5093754;28;20047;-83
2023/03/10 07:05:05;;;;;;;55.17;39.33;;;;;;;;;;5096222;28;20029;-78
2023/03/10 07:07:31;;;;;;;69.80;49.10;;;;;;;;;;5091014;28;20028;-80
2023/03/10 07:09:56;;;;;;;84.32;63.78;;;;;;;;;;5095778;28;20028;-78
2023/03/10 07:12:22;;;;;;;72.18;56.67;;;;;;;;;;5095784;28;20110;-79
2023/03/10 07:14:47;;;;;;;120.97;101.30;;;;;;;;;;5095411;28;20035;-79
2023/03/10 07:17:13;;;;;;;124.28;101.60;;;;;;;;;;5095035;28;20461;-79
2023/03/10 07:19:38;;;;;;;95.43;84.15;;;;;;;;;;5094351;28;20024;-79
2023/03/10 07:22:03;;;;;;;135.98;114.00;;;;;;;;;;5071063;28;20059;-80
2023/03/10 07:24:28;;;;;;;147.63;118.50;;;;;;;;;;5095874;28;20102;-79
2023/03/10 07:26:54;;;;;;;139.80;109.55;;;;;;;;;;5089458;28;20027;-76
2023/03/10 07:29:19;;;;;;;168.52;133.27;;;;;;;;;;5095822;28;21696;-77
2023/03/10 07:31:44;;;;;;;123.03;104.47;;;;;;;;;;5095126;28;20048;-77
2023/03/10 07:34:10;;;;;;;113.57;90.35;;;;;;;;;;5095490;28;20032;-81
2023/03/10 07:36:35;;;;;;;106.65;90.10;;;;;;;;;;5090781;28;20082;-76
2023/03/10 07:39:00;;;;;;;165.38;114.78;;;;;;;;;;5093280;28;20396;-78
2023/03/10 07:41:26;;;;;;;183.73;131.73;;;;;;;;;;5092081;28;20024;-77
2023/03/10 07:43:52;;;;;;;122.88;86.15;;;;;;;;;;5094430;28;20353;-76
2023/03/10 07:46:17;;;;;;;75.78;59.45;;;;;;;;;;5096161;28;20032;-77
2023/03/10 07:48:43;;;;;;;496.90;266.40;;;;;;;;;;5097512;28;20025;-78
2023/03/10 07:51:08;;;;;;;269.30;138.63;;;;;;;;;;5092356;28;20031;-77
2023/03/10 07:53:34;;;;;;;114.55;78.95;;;;;;;;;;5093001;28;20028;-76
2023/03/10 07:56:02;;;;;;;76.28;56.90;;;;;;;;;;5095038;28;20050;-78
2023/03/10 07:58:28;;;;;;;58.72;50.78;;;;;;;;;;5097301;28;20325;-77
2023/03/10 08:00:54;;;;;;;59.80;49.30;;;;;;;;;;5091795;28;20495;-77
2023/03/10 08:03:20;;;;;;;528.85;303.67;;;;;;;;;;5092542;28;20047;-76
2023/03/10 08:05:46;;;;;;;252.10;138.93;;;;;;;;;;5091673;28;20405;-76
2023/03/10 08:08:11;;;;;;;160.70;98.07;;;;;;;;;;5090780;28;20362;-76
2023/03/10 08:10:37;;;;;;;114.38;73.47;;;;;;;;;;5091532;28;20023;-77
2023/03/10 08:13:02;;;;;;;50.35;40.65;;;;;;;;;;5090435;28;20032;-77
2023/03/10 08:15:27;;;;;;;68.45;52.17;;;;;;;;;;5096270;28;20072;-77
2023/03/10 08:17:53;;;;;;;69.78;52.10;;;;;;;;;;5094916;28;20034;-77
2023/03/10 08:20:18;;;;;;;40.45;34.10;;;;;;;;;;5092956;28;20568;-78
2023/03/10 08:22:44;;;;;;;61.78;47.10;;;;;;;;;;5094351;28;20027;-77
2023/03/10 08:25:11;;;;;;;67.60;53.08;;;;;;;;;;5092662;28;20114;-76
2023/03/10 08:27:36;;;;;;;60.72;47.25;;;;;;;;;;5091614;28;20039;-77
2023/03/10 08:30:02;;;;;;;74.40;58.05;;;;;;;;;;5092829;28;20024;-76
2023/03/10 08:32:27;;;;;;;61.92;52.85;;;;;;;;;;5090357;28;20020;-77
2023/03/10 08:34:52;;;;;;;52.03;37.83;;;;;;;;;;5088702;28;20100;-77
2023/03/10 08:37:18;;;;;;;62.47;45.88;;;;;;;;;;5092195;28;20027;-76
2023/03/10 08:39:43;;;;;;;49.15;37.58;;;;;;;;;;5091723;28;20504;-76
2023/03/10 08:42:10;;;;;;;56.60;42.10;;;;;;;;;;5088952;28;20025;-77
2023/03/10 08:44:35;;;;;;;37.40;26.08;;;;;;;;;;5093663;28;20057;-76
2023/03/10 08:47:00;;;;;;;53.15;40.17;;;;;;;;;;5091183;28;20020;-76
2023/03/10 08:49:26;;;;;;;38.58;29.42;;;;;;;;;;5087073;28;20024;-77
2023/03/10 08:51:51;;;;;;;74.57;54.20;;;;;;;;;;5090832;28;20040;-78
2023/03/10 08:54:19;;;;;;;45.28;38.25;;;;;;;;;;5089337;28;20035;-77
2023/03/10 08:56:44;;;;;;;42.30;34.22;;;;;;;;;;5090584;28;20049;-76
2023/03/10 08:59:09;;;;;;;44.40;35.60;;;;;;;;;;5095142;28;20020;-76
2023/03/10 09:01:36;;;;;;;45.47;37.70;;;;;;;;;;5087364;28;20345;-76
2023/03/10 09:04:02;;;;;;;57.33;44.58;;;;;;;;;;5091507;28;20100;-79
2023/03/10 09:06:28;;;;;;;86.97;65.00;;;;;;;;;;5092729;28;20016;-76
2023/03/10 09:08:53;;;;;;;57.88;45.53;;;;;;;;;;5086833;28;20032;-75
2023/03/10 09:11:20;;;;;;;57.65;46.00;;;;;;;;;;5085843;28;20020;-76
2023/03/10 09:13:45;;;;;;;92.18;63.65;;;;;;;;;;5091206;28;20031;-77
2023/03/10 09:16:12;;;;;;;69.32;51.13;;;;;;;;;;5091186;28;20085;-76
2023/03/10 09:18:37;;;;;;;63.22;45.85;;;;;;;;;;5088464;28;20531;-77
2023/03/10 09:21:03;;;;;;;46.17;32.97;;;;;;;;;;5090719;28;20111;-76
2023/03/10 09:23:28;;;;;;;39.08;27.30;;;;;;;;;;5088339;28;20074;-77
2023/03/10 09:25:53;;;;;;;24.25;18.05;;;;;;;;;;5091327;28;20032;-76
2023/03/10 09:28:19;;;;;;;25.58;20.08;;;;;;;;;;5067669;28;20323;-76
2023/03/10 09:30:44;;;;;;;56.20;44.47;;;;;;;;;;5092068;28;20032;-76
2023/03/10 09:33:14;;;;;;;44.78;31.25;;;;;;;;;;5089537;28;20036;-76
2023/03/10 09:35:39;;;;;;;37.90;26.40;;;;;;;;;;5087833;28;20031;-77
2023/03/10 09:38:05;;;;;;;20.58;13.82;;;;;;;;;;5091873;28;20034;-76
2023/03/10 09:40:30;;;;;;;23.15;17.85;;;;;;;;;;5092701;28;20031;-76
2023/03/10 09:43:00;;;;;;;40.38;28.85;;;;;;;;;;5089075;28;20495;-76
2023/03/10 09:45:28;;;;;;;44.92;34.08;;;;;;;;;;5091097;28;20433;-76
2023/03/10 09:48:15;;;;;;;27.50;17.70;;;;;;;;;;5088935;28;20032;-77
2023/03/10 09:50:51;;;;;;;65.82;47.97;;;;;;;;;;5086122;28;20028;-76
2023/03/10 09:53:25;;;;;;;45.38;32.03;;;;;;;;;;5089013;28;20496;-76
2023/03/10 09:55:51;;;;;;;36.72;23.67;;;;;;;;;;5089776;28;20028;-77
2023/03/10 09:58:28;;;;;;;48.78;32.63;;;;;;;;;;5092567;28;20039;-78
2023/03/10 10:00:53;;;;;;;52.92;36.17;;;;;;;;;;5093350;28;20069;-77
2023/03/10 10:03:20;;;;;;;57.33;41.50;;;;;;;;;;5091216;28;20052;-77
2023/03/10 10:05:48;;;;;;;52.72;35.55;;;;;;;;;;5090486;28;20057;-76
2023/03/10 10:08:22;;;;;;;20.92;17.98;;;;;;;;;;5093267;28;20031;-77
2023/03/10 10:10:49;;;;;;;39.30;23.83;;;;;;;;;;5087975;28;20081;-77
2023/03/10 10:13:15;;;;;;;19.63;13.55;;;;;;;;;;5090208;28;20035;-77
2023/03/10 10:15:44;;;;;;;22.98;16.70;;;;;;;;;;5090974;28;20012;-76
2023/03/10 10:18:25;;;;;;;18.55;13.93;;;;;;;;;;5091289;28;20024;-76
2023/03/10 10:21:12;;;;;;;7.32;6.63;;;;;;;;;;5091373;28;20023;-76
2023/03/10 10:23:37;;;;;;;18.17;14.90;;;;;;;;;;5091424;28;20066;-76
2023/03/10 10:26:16;;;;;;;18.10;10.20;;;;;;;;;;5092179;28;20055;-77
2023/03/10 10:28:43;;;;;;;50.72;39.78;;;;;;;;;;5089942;28;20135;-76
2023/03/10 10:31:16;;;;;;;24.88;14.93;;;;;;;;;;5089891;28;20519;-76
2023/03/10 10:34:03;;;;;;;32.80;29.40;;;;;;;;;;5089249;28;20092;-76
2023/03/10 10:36:47;;;;;;;107.03;96.30;;;;;;;;;;5088997;28;20840;-75
2023/03/10 10:39:21;;;;;;;110.63;99.70;;;;;;;;;;5089364;28;20032;-76
2023/03/10 10:41:47;;;;;;;31.67;28.38;;;;;;;;;;5090770;28;20028;-75
2023/03/10 10:44:14;;;;;;;33.70;30.30;;;;;;;;;;5088046;28;20206;-77
2023/03/10 10:46:48;;;;;;;27.27;24.35;;;;;;;;;;5088082;28;20028;-76
2023/03/10 10:49:18;;;;;;;18.63;16.95;;;;;;;;;;5088498;28;20026;-77
2023/03/10 10:51:54;;;;;;;10.18;9.18;;;;;;;;;;5088518;28;20160;-77
2023/03/10 10:54:36;;;;;;;16.48;14.88;;;;;;;;;;5090224;28;20027;-76
2023/03/10 10:57:01;;;;;;;10.63;9.52;;;;;;;;;;5089212;28;20073;-76
2023/03/10 10:59:28;;;;;;;14.52;13.05;;;;;;;;;;5092373;28;20032;-77
2023/03/10 11:02:14;;;;;;;12.95;10.65;;;;;;;;;;5094515;28;20027;-76
2023/03/10 11:04:41;;;;;;;16.90;15.15;;;;;;;;;;5079016;28;20035;-76
2023/03/10 11:07:08;;;;;;;17.13;13.45;;;;;;;;;;5095637;28;20114;-76
2023/03/10 11:09:34;;;;;;;16.73;14.25;;;;;;;;;;5092624;28;20034;-76
2023/03/10 11:12:20;;;;;;;50.80;41.90;;;;;;;;;;5089690;28;20023;-77
2023/03/10 11:15:09;;;;;;;36.85;32.80;;;;;;;;;;5050181;28;20040;-76
2023/03/10 11:17:45;;;;;;;19.55;16.48;;;;;;;;;;5092894;28;20413;-77
2023/03/10 11:20:29;;;;;;;34.55;24.38;;;;;;;;;;5093219;28;20021;-76
2023/03/10 11:22:54;;;;;;;34.03;26.63;;;;;;;;;;5093644;28;20040;-77
2023/03/10 11:25:22;;;;;;;20.02;15.27;;;;;;;;;;5093500;28;20453;-78
2023/03/10 11:27:50;;;;;;;16.50;13.57;;;;;;;;;;5091095;28;20049;-76
2023/03/10 11:30:21;;;;;;;29.65;25.05;;;;;;;;;;5091110;28;20430;-76
2023/03/10 11:32:46;;;;;;;24.63;20.38;;;;;;;;;;5092940;28;20035;-76
2023/03/10 11:35:23;;;;;;;13.95;9.43;;;;;;;;;;5092374;28;20031;-76
2023/03/10 11:38:02;;;;;;;29.08;25.98;;;;;;;;;;5093845;28;20114;-77
2023/03/10 11:40:55;;;;;;;37.03;29.08;;;;;;;;;;5091653;28;20031;-76
2023/03/10 11:43:20;;;;;;;63.78;47.92;;;;;;;;;;5086241;28;20428;-76
2023/03/10 11:45:52;;;;;;;37.90;28.55;;;;;;;;;;5090854;28;20161;-76
2023/03/10 11:48:29;;;;;;;46.63;35.63;;;;;;;;;;5093664;28;20347;-76
2023/03/10 11:50:59;;;;;;;141.57;100.93;;;;;;;;;;5090777;28;20359;-76
2023/03/10 11:53:24;;;;;;;;;;;;;;;;;;5089602;28;20446;-77
2023/03/10 11:55:50;;;;;;;38.95;24.25;;;;;;;;;;5089258;28;19912;-78
2023/03/10 11:58:27;;;;;;;35.70;26.02;;;;;;;;;;5091005;28;20373;-76
2023/03/10 12:00:53;;;;;;;39.72;33.20;;;;;;;;;;5092126;28;20016;-77
2023/03/10 12:03:47;;;;;;;43.70;33.25;;;;;;;;;;5091128;28;20472;-76
2023/03/10 12:06:25;;;;;;;62.30;42.75;;;;;;;;;;4995733;28;20041;-76
2023/03/10 12:08:52;;;;;;;60.10;44.67;;;;;;;;;;4993127;28;20052;-78
2023/03/10 12:11:20;;;;;;;66.60;47.45;;;;;;;;;;4994703;28;20053;-77
2023/03/10 12:13:47;;;;;;;58.35;49.05;;;;;;;;;;4995872;28;20479;-77
2023/03/10 12:16:15;;;;;;;57.05;50.55;;;;;;;;;;4989926;28;20041;-77
2023/03/10 12:18:41;;;;;;;49.20;40.47;;;;;;;;;;4993953;28;20045;-76
2023/03/10 12:21:17;;;;;;;78.65;67.85;;;;;;;;;;4992427;28;20014;-78
2023/03/10 12:23:43;;;;;;;80.88;71.13;;;;;;;;;;4992581;28;20046;-77
2023/03/10 12:26:09;;;;;;;99.15;87.75;;;;;;;;;;4975770;28;20038;-77
2023/03/10 12:28:34;;;;;;;104.18;91.50;;;;;;;;;;4993894;28;20563;-77
2023/03/10 12:31:00;;;;;;;66.28;56.70;;;;;;;;;;4994385;28;20113;-78
2023/03/10 12:33:37;;;;;;;53.85;44.90;;;;;;;;;;4992983;28;20030;-77
2023/03/10 12:36:17;;;;;;;58.80;52.05;;;;;;;;;;4993064;28;20049;-77
2023/03/10 12:38:52;;;;;;;75.43;65.03;;;;;;;;;;4990244;28;20046;-77
2023/03/10 12:41:26;;;;;;;42.65;37.97;;;;;;;;;;4993188;28;20128;-77
2023/03/10 12:43:58;;;;;;;30.58;24.80;;;;;;;;;;5091168;28;20036;-78
2023/03/10 12:46:39;;;;;;;51.22;43.55;;;;;;;;;;5096366;28;20024;-77
2023/03/10 12:49:20;;;;;;;54.78;48.92;;;;;;;;;;5093014;28;20035;-77
2023/03/10 12:51:48;;;;;;;39.22;34.17;;;;;;;;;;5093949;28;20080;-77
2023/03/10 12:54:13;;;;;;;29.67;26.13;;;;;;;;;;5088560;28;20365;-77
2023/03/10 12:56:42;;;;;;;33.70;29.80;;;;;;;;;;5095674;28;20430;-76
2023/03/10 12:59:31;;;;;;;37.50;30.40;;;;;;;;;;5091641;28;20028;-77
2023/03/10 13:01:59;;;;;;;48.50;43.17;;;;;;;;;;5090774;28;20024;-77
2023/03/10 13:04:26;;;;;;;35.03;31.55;;;;;;;;;;5093382;28;20027;-75
2023/03/10 13:06:55;;;;;;;26.88;23.58;;;;;;;;;;5090419;28;20032;-78
2023/03/10 13:09:20;;;;;;;25.52;20.98;;;;;;;;;;5090534;28;20064;-77
2023/03/10 13:12:01;;;;;;;32.08;28.77;;;;;;;;;;5091420;28;20055;-77
2023/03/10 13:14:37;;;;;;;35.63;31.83;;;;;;;;;;5087843;28;20164;-78
2023/03/10 13:17:03;;;;;;;31.88;28.45;;;;;;;;;;5088768;28;20024;-77
2023/03/10 13:19:29;;;;;;;45.45;40.65;;;;;;;;;;5089642;28;20361;-78
2023/03/10 13:21:55;;;;;;;44.90;36.65;;;;;;;;;;5082804;28;20107;-76
2023/03/10 13:24:23;;;;;;;42.75;37.80;;;;;;;;;;5074445;28;20426;-78
2023/03/10 13:27:00;;;;;;;65.35;57.33;;;;;;;;;;5077383;28;20588;-77
2023/03/10 13:29:26;;;;;;;49.78;43.17;;;;;;;;;;5076780;28;20085;-76
2023/03/10 13:31:52;;;;;;;34.97;29.05;;;;;;;;;;5077150;28;20605;-78
2023/03/10 13:34:19;;;;;;;26.90;24.00;;;;;;;;;;5079232;28;21036;-77
2023/03/10 13:36:44;;;;;;;22.25;19.30;;;;;;;;;;5078969;28;20043;-77
2023/03/10 13:39:21;;;;;;;27.65;22.33;;;;;;;;;;5077609;28;20028;-77
2023/03/10 13:41:50;;;;;;;25.45;22.58;;;;;;;;;;5076462;28;20028;-78
2023/03/10 13:44:17;;;;;;;26.35;23.15;;;;;;;;;;5075273;28;20446;-77
2023/03/10 13:46:45;;;;;;;20.17;17.25;;;;;;;;;;5078858;28;20043;-78
2023/03/10 13:49:12;;;;;;;25.73;22.97;;;;;;;;;;5076374;28;20020;-77
2023/03/10 13:51:37;;;;;;;21.33;18.23;;;;;;;;;;5076082;28;20028;-78
2023/03/10 13:54:18;;;;;;;24.25;21.60;;;;;;;;;;5077264;28;20981;-77
2023/03/10 13:56:44;;;;;;;30.08;26.80;;;;;;;;;;5077835;28;20099;-76
2023/03/10 13:59:14;;;;;;;22.05;19.75;;;;;;;;;;5078955;28;20034;-77
2023/03/10 14:01:39;;;;;;;;;;;;;;;;;;5076638;28;20571;-78
2023/03/10 14:04:07;;;;;;;23.67;21.25;;;;;;;;;;5075970;28;20008;-76
2023/03/10 14:06:33;;;;;;;29.10;25.92;;;;;;;;;;5076280;28;20114;-77
2023/03/10 14:09:18;;;;;;;38.47;34.10;;;;;;;;;;5075930;28;20111;-75
2023/03/10 14:11:45;;;;;;;48.88;41.92;;;;;;;;;;5080006;28;20111;-77
2023/03/10 14:14:12;;;;;;;36.50;31.85;;;;;;;;;;5080399;28;21171;-75
2023/03/10 14:16:54;;;;;;;34.30;28.52;;;;;;;;;;5079432;28;20072;-75
2023/03/10 14:19:45;;;;;;;39.03;31.40;;;;;;;;;;5076760;28;20028;-76